Time;durP1;ratioP1;P1;durP2;ratioP2;P2;SDS_P1;SDS_P2;PMS_P1;PMS_P2;Temp;Humidity;BMP_temperature;BMP_pressure;BME280_temperature;BME280_humidity;BME280_pressure;Samples;Min_cycle;Max_cycle;Signal;HPM_P1;HPM_P2
2021/07/17 00:01:12;;;;;;;39.50;11.80;;;;;;;;;;5013557;28;20222;-73
2021/07/17 00:03:38;;;;;;;39.95;13.00;;;;;;;;;;5024501;28;20194;-73
2021/07/17 00:06:04;;;;;;;39.38;11.40;;;;;;;;;;5012068;28;20205;-73
2021/07/17 00:08:30;;;;;;;33.30;12.07;;;;;;;;;;5021598;28;20228;-74
2021/07/17 00:10:55;;;;;;;38.97;12.48;;;;;;;;;;4994675;28;21009;-74
2021/07/17 00:13:21;;;;;;;45.17;13.23;;;;;;;;;;5021277;28;20197;-73
2021/07/17 00:15:50;;;;;;;32.70;12.15;;;;;;;;;;5014367;28;20281;-73
2021/07/17 00:18:17;;;;;;;35.42;12.27;;;;;;;;;;5025880;28;20185;-73
2021/07/17 00:20:44;;;;;;;38.45;12.88;;;;;;;;;;5018488;28;20190;-73
2021/07/17 00:23:09;;;;;;;47.03;12.68;;;;;;;;;;5025379;28;20197;-73
2021/07/17 00:25:35;;;;;;;34.42;12.02;;;;;;;;;;5029982;28;20240;-73
2021/07/17 00:28:00;;;;;;;38.03;12.32;;;;;;;;;;5014861;28;20197;-73
2021/07/17 00:30:26;;;;;;;36.95;12.07;;;;;;;;;;5026813;28;20184;-73
2021/07/17 00:32:51;;;;;;;40.63;13.38;;;;;;;;;;5018586;28;20186;-73
2021/07/17 00:35:17;;;;;;;33.60;12.57;;;;;;;;;;5027109;28;20182;-73
2021/07/17 00:37:42;;;;;;;47.97;13.38;;;;;;;;;;5017291;28;20197;-73
2021/07/17 00:40:10;;;;;;;37.20;12.48;;;;;;;;;;5029873;28;20186;-73
2021/07/17 00:42:41;;;;;;;41.38;13.70;;;;;;;;;;5011270;28;20206;-73
2021/07/17 00:45:07;;;;;;;39.30;13.38;;;;;;;;;;5018146;28;20235;-74
2021/07/17 00:47:35;;;;;;;41.03;14.15;;;;;;;;;;5017309;28;20194;-73
2021/07/17 00:50:00;;;;;;;35.42;12.32;;;;;;;;;;5028450;28;20272;-72
2021/07/17 00:52:26;;;;;;;42.92;14.75;;;;;;;;;;5012344;28;20186;-73
2021/07/17 00:54:53;;;;;;;44.47;13.45;;;;;;;;;;5028559;28;20193;-73
2021/07/17 00:57:21;;;;;;;39.92;13.07;;;;;;;;;;5023939;28;20580;-74
2021/07/17 00:59:49;;;;;;;47.22;14.07;;;;;;;;;;5022874;28;20608;-73
2021/07/17 01:02:19;;;;;;;38.15;14.60;;;;;;;;;;5023052;28;20619;-73
2021/07/17 01:04:46;;;;;;;40.83;13.23;;;;;;;;;;4999609;28;20288;-73
2021/07/17 01:07:11;;;;;;;33.03;12.13;;;;;;;;;;5022294;28;20719;-73
2021/07/17 01:09:36;;;;;;;40.90;12.55;;;;;;;;;;5016733;28;20857;-73
2021/07/17 01:12:02;;;;;;;37.92;12.93;;;;;;;;;;5024260;28;20653;-72
2021/07/17 01:14:28;;;;;;;43.17;13.27;;;;;;;;;;5014329;28;20252;-73
2021/07/17 01:16:53;;;;;;;36.13;13.18;;;;;;;;;;5021817;28;20192;-73
2021/07/17 01:19:23;;;;;;;39.83;11.80;;;;;;;;;;5012500;28;20218;-73
2021/07/17 01:21:50;;;;;;;40.28;12.00;;;;;;;;;;5007386;28;20210;-73
2021/07/17 01:24:15;;;;;;;37.53;12.40;;;;;;;;;;5016755;28;20217;-72
2021/07/17 01:26:41;;;;;;;45.78;13.93;;;;;;;;;;5023072;28;20217;-73
2021/07/17 01:29:07;;;;;;;48.78;13.45;;;;;;;;;;5009667;28;20185;-73
2021/07/17 01:31:32;;;;;;;48.80;13.20;;;;;;;;;;5023695;28;20191;-72
2021/07/17 01:33:57;;;;;;;43.75;12.35;;;;;;;;;;5024769;28;20182;-73
2021/07/17 01:36:23;;;;;;;57.72;13.70;;;;;;;;;;5013428;28;20182;-72
2021/07/17 01:38:48;;;;;;;40.05;13.13;;;;;;;;;;5024831;28;20218;-73
2021/07/17 01:41:14;;;;;;;43.17;13.30;;;;;;;;;;5016653;28;20210;-73
2021/07/17 01:43:40;;;;;;;45.30;14.05;;;;;;;;;;5020341;28;20251;-71
2021/07/17 01:46:05;;;;;;;44.35;13.70;;;;;;;;;;4999416;28;20190;-71
2021/07/17 01:48:30;;;;;;;48.55;14.82;;;;;;;;;;5023223;28;20186;-73
2021/07/17 01:50:56;;;;;;;46.55;14.38;;;;;;;;;;5020459;28;20221;-73
2021/07/17 01:53:22;;;;;;;40.60;13.20;;;;;;;;;;5047214;28;20197;-71
2021/07/17 01:55:47;;;;;;;56.55;15.52;;;;;;;;;;5037206;28;20661;-71
2021/07/17 01:58:13;;;;;;;52.97;13.43;;;;;;;;;;5048362;28;20177;-71
2021/07/17 02:00:39;;;;;;;43.38;14.35;;;;;;;;;;5037063;28;20304;-70
2021/07/17 02:03:06;;;;;;;44.58;15.38;;;;;;;;;;5042424;28;20185;-72
2021/07/17 02:05:31;;;;;;;54.67;16.23;;;;;;;;;;5043012;28;20201;-71
2021/07/17 02:07:56;;;;;;;41.70;15.05;;;;;;;;;;5031073;28;20185;-73
2021/07/17 02:10:33;;;;;;;52.42;15.98;;;;;;;;;;5044003;28;20184;-71
2021/07/17 02:13:05;;;;;;;38.60;15.15;;;;;;;;;;5033792;28;20177;-72
2021/07/17 02:15:40;;;;;;;53.15;15.73;;;;;;;;;;5046530;28;20229;-73
2021/07/17 02:18:05;;;;;;;52.55;15.60;;;;;;;;;;5036737;28;20671;-72
2021/07/17 02:20:31;;;;;;;48.72;15.18;;;;;;;;;;5041531;28;20202;-72
2021/07/17 02:22:56;;;;;;;39.13;15.82;;;;;;;;;;5032714;28;20209;-72
2021/07/17 02:25:22;;;;;;;49.00;15.88;;;;;;;;;;5043651;28;20515;-72
2021/07/17 02:27:47;;;;;;;45.30;15.98;;;;;;;;;;5032305;28;20200;-72
2021/07/17 02:30:13;;;;;;;50.03;16.05;;;;;;;;;;5043458;28;20585;-73
2021/07/17 02:32:38;;;;;;;51.35;15.82;;;;;;;;;;5038768;28;20616;-72
2021/07/17 02:35:05;;;;;;;49.28;16.42;;;;;;;;;;5041524;28;20194;-72
2021/07/17 02:37:31;;;;;;;47.75;15.48;;;;;;;;;;5041221;28;20549;-72
2021/07/17 02:39:56;;;;;;;52.30;15.98;;;;;;;;;;5040784;28;20641;-72
2021/07/17 02:42:22;;;;;;;54.25;16.27;;;;;;;;;;5044961;28;20197;-73
2021/07/17 02:44:49;;;;;;;45.45;16.45;;;;;;;;;;5033360;28;20186;-72
2021/07/17 02:47:14;;;;;;;45.30;16.23;;;;;;;;;;5041233;28;20199;-74
2021/07/17 02:49:40;;;;;;;46.50;16.05;;;;;;;;;;5025530;28;20276;-72
2021/07/17 02:52:05;;;;;;;46.88;16.30;;;;;;;;;;5022400;28;20557;-72
2021/07/17 02:54:31;;;;;;;42.38;16.38;;;;;;;;;;5015624;28;20221;-72
2021/07/17 02:56:56;;;;;;;55.28;16.80;;;;;;;;;;5023663;28;20540;-72
2021/07/17 02:59:21;;;;;;;45.45;15.48;;;;;;;;;;4992635;28;20245;-72
2021/07/17 03:01:47;;;;;;;52.75;16.60;;;;;;;;;;5022042;28;20506;-72
2021/07/17 03:04:12;;;;;;;56.00;16.35;;;;;;;;;;5012019;28;20209;-72
2021/07/17 03:06:37;;;;;;;51.25;16.85;;;;;;;;;;5002850;28;20194;-71
2021/07/17 03:09:04;;;;;;;55.78;17.25;;;;;;;;;;5013159;28;20220;-72
2021/07/17 03:11:34;;;;;;;53.65;17.40;;;;;;;;;;5018117;28;20194;-72
2021/07/17 03:14:00;;;;;;;49.08;16.00;;;;;;;;;;5017055;28;20187;-72
2021/07/17 03:16:26;;;;;;;48.17;16.45;;;;;;;;;;5011636;28;20222;-72
2021/07/17 03:18:53;;;;;;;41.08;15.55;;;;;;;;;;5026319;28;20210;-72
2021/07/17 03:21:18;;;;;;;54.33;17.10;;;;;;;;;;5009900;28;20304;-72
2021/07/17 03:23:43;;;;;;;58.58;17.33;;;;;;;;;;5024658;28;20266;-72
2021/07/17 03:26:09;;;;;;;56.00;17.00;;;;;;;;;;5013541;28;20906;-72
2021/07/17 03:28:34;;;;;;;46.38;14.93;;;;;;;;;;5019747;28;20186;-72
2021/07/17 03:30:59;;;;;;;47.72;16.48;;;;;;;;;;5017189;28;20198;-72
2021/07/17 03:33:25;;;;;;;44.33;15.52;;;;;;;;;;5018742;28;20698;-72
2021/07/17 03:35:50;;;;;;;46.15;15.82;;;;;;;;;;5013192;28;20754;-72
2021/07/17 03:38:15;;;;;;;43.60;16.67;;;;;;;;;;5019691;28;20660;-72
2021/07/17 03:40:41;;;;;;;45.97;17.02;;;;;;;;;;5009361;28;20212;-73
2021/07/17 03:43:06;;;;;;;37.90;15.93;;;;;;;;;;5018408;28;20275;-72
2021/07/17 03:45:31;;;;;;;47.63;17.45;;;;;;;;;;5009143;28;20530;-72
2021/07/17 03:47:57;;;;;;;51.47;15.63;;;;;;;;;;5015045;28;20704;-72
2021/07/17 03:50:22;;;;;;;58.17;16.80;;;;;;;;;;5012953;28;20225;-72
2021/07/17 03:52:47;;;;;;;49.40;15.80;;;;;;;;;;5032741;28;20185;-72
2021/07/17 03:55:13;;;;;;;53.63;15.60;;;;;;;;;;5042224;28;20185;-72
2021/07/17 03:57:38;;;;;;;44.17;15.40;;;;;;;;;;5036983;28;20197;-72
2021/07/17 04:00:05;;;;;;;47.92;15.20;;;;;;;;;;5044524;28;20284;-72
2021/07/17 04:02:39;;;;;;;47.20;16.30;;;;;;;;;;5033780;28;20228;-72
2021/07/17 04:05:05;;;;;;;44.58;15.23;;;;;;;;;;5041026;28;20244;-72
2021/07/17 04:07:30;;;;;;;53.03;15.30;;;;;;;;;;5030651;28;20618;-73
2021/07/17 04:09:56;;;;;;;43.40;15.65;;;;;;;;;;5045811;28;20224;-72
2021/07/17 04:12:21;;;;;;;46.58;16.40;;;;;;;;;;5033155;28;20193;-72
2021/07/17 04:14:46;;;;;;;49.22;16.10;;;;;;;;;;5036387;28;20219;-72
2021/07/17 04:17:11;;;;;;;47.70;15.85;;;;;;;;;;5042074;28;20181;-72
2021/07/17 04:19:37;;;;;;;41.05;15.60;;;;;;;;;;5033770;28;20321;-72
2021/07/17 04:22:02;;;;;;;39.47;14.82;;;;;;;;;;5040217;28;20204;-72
2021/07/17 04:24:28;;;;;;;44.85;15.25;;;;;;;;;;5033056;28;20242;-72
2021/07/17 04:26:53;;;;;;;42.55;15.02;;;;;;;;;;5042260;28;20208;-72
2021/07/17 04:29:18;;;;;;;36.53;15.15;;;;;;;;;;5036170;28;20668;-72
2021/07/17 04:31:44;;;;;;;42.72;14.35;;;;;;;;;;5041097;28;20188;-72
2021/07/17 04:34:09;;;;;;;40.63;14.07;;;;;;;;;;5035866;28;20221;-72
2021/07/17 04:36:34;;;;;;;36.42;14.50;;;;;;;;;;5046031;28;20192;-72
2021/07/17 04:39:00;;;;;;;39.67;14.10;;;;;;;;;;5031671;28;20189;-72
2021/07/17 04:41:25;;;;;;;38.78;13.88;;;;;;;;;;5038045;28;20798;-72
2021/07/17 04:43:50;;;;;;;43.30;14.85;;;;;;;;;;5037909;28;20633;-72
2021/07/17 04:46:16;;;;;;;44.15;14.55;;;;;;;;;;5037313;28;20194;-72
2021/07/17 04:48:41;;;;;;;37.45;14.80;;;;;;;;;;5044567;28;20212;-72
2021/07/17 04:51:07;;;;;;;42.47;14.35;;;;;;;;;;5033853;28;20689;-72
2021/07/17 04:53:32;;;;;;;47.67;14.57;;;;;;;;;;5039716;28;20638;-72
2021/07/17 04:55:58;;;;;;;36.45;14.82;;;;;;;;;;5034265;28;20197;-72
2021/07/17 04:58:23;;;;;;;43.00;14.63;;;;;;;;;;5039550;28;20409;-72
2021/07/17 05:00:48;;;;;;;34.83;14.75;;;;;;;;;;5036735;28;20213;-72
2021/07/17 05:03:14;;;;;;;42.00;14.63;;;;;;;;;;5044901;28;20301;-75
2021/07/17 05:05:40;;;;;;;35.08;14.15;;;;;;;;;;5032047;28;20243;-73
2021/07/17 05:08:06;;;;;;;35.65;14.48;;;;;;;;;;5046609;28;20205;-73
2021/07/17 05:10:31;;;;;;;36.83;14.65;;;;;;;;;;5036266;28;20182;-73
2021/07/17 05:12:57;;;;;;;31.63;13.60;;;;;;;;;;5048010;28;20596;-73
2021/07/17 05:15:22;;;;;;;39.38;14.60;;;;;;;;;;5041210;28;20548;-72
2021/07/17 05:17:48;;;;;;;32.63;13.10;;;;;;;;;;5043689;28;20185;-72
2021/07/17 05:20:14;;;;;;;39.53;14.45;;;;;;;;;;5045299;28;20189;-75
2021/07/17 05:22:39;;;;;;;32.35;13.77;;;;;;;;;;5036355;28;20213;-73
2021/07/17 05:25:06;;;;;;;38.20;13.93;;;;;;;;;;5046452;28;20637;-74
2021/07/17 05:27:31;;;;;;;37.45;13.20;;;;;;;;;;5039016;28;20213;-74
2021/07/17 05:29:56;;;;;;;29.67;12.45;;;;;;;;;;5046262;28;20641;-73
2021/07/17 05:32:22;;;;;;;31.35;12.10;;;;;;;;;;5037716;28;20255;-73
2021/07/17 05:34:47;;;;;;;33.63;12.68;;;;;;;;;;5045171;28;20177;-73
2021/07/17 05:37:13;;;;;;;32.03;11.65;;;;;;;;;;5036066;28;20181;-76
2021/07/17 05:39:38;;;;;;;30.45;11.40;;;;;;;;;;5046657;28;20177;-72
2021/07/17 05:42:04;;;;;;;32.15;11.52;;;;;;;;;;5035971;28;20227;-74
2021/07/17 05:44:30;;;;;;;25.30;11.18;;;;;;;;;;5047479;28;20177;-72
2021/07/17 05:46:56;;;;;;;28.65;11.18;;;;;;;;;;5043472;28;20315;-71
2021/07/17 05:49:21;;;;;;;32.20;11.85;;;;;;;;;;5034990;28;20186;-72
2021/07/17 05:51:47;;;;;;;27.02;10.27;;;;;;;;;;5022305;28;20226;-75
2021/07/17 05:54:13;;;;;;;34.08;11.30;;;;;;;;;;5014639;28;20195;-72
2021/07/17 05:56:38;;;;;;;22.70;10.48;;;;;;;;;;5003943;28;20194;-72
2021/07/17 05:59:04;;;;;;;28.95;10.30;;;;;;;;;;4998669;28;20200;-73
2021/07/17 06:01:29;;;;;;;29.77;9.77;;;;;;;;;;5024871;28;20288;-73
2021/07/17 06:03:54;;;;;;;29.83;10.60;;;;;;;;;;4996559;28;20599;-72
2021/07/17 06:06:20;;;;;;;28.25;9.82;;;;;;;;;;5024624;28;20198;-72
2021/07/17 06:08:45;;;;;;;22.17;9.18;;;;;;;;;;5002960;28;20194;-75
2021/07/17 06:11:11;;;;;;;19.90;8.90;;;;;;;;;;5025456;28;20189;-72
2021/07/17 06:13:36;;;;;;;24.35;10.18;;;;;;;;;;5017756;28;20619;-73
2021/07/17 06:16:01;;;;;;;21.73;9.73;;;;;;;;;;5021710;28;20263;-72
2021/07/17 06:18:27;;;;;;;22.05;9.45;;;;;;;;;;5027842;28;20201;-72
2021/07/17 06:20:52;;;;;;;25.33;9.35;;;;;;;;;;5012708;28;20194;-72
2021/07/17 06:23:18;;;;;;;22.92;9.57;;;;;;;;;;5025681;28;20185;-72
2021/07/17 06:25:43;;;;;;;20.42;9.88;;;;;;;;;;5015875;28;20190;-72
2021/07/17 06:28:08;;;;;;;20.80;8.45;;;;;;;;;;5026412;28;20716;-72
2021/07/17 06:30:33;;;;;;;20.58;8.75;;;;;;;;;;5014019;28;20257;-74
2021/07/17 06:32:59;;;;;;;27.95;9.32;;;;;;;;;;5022608;28;20673;-72
2021/07/17 06:35:25;;;;;;;22.48;9.32;;;;;;;;;;5013434;28;20744;-75
2021/07/17 06:37:50;;;;;;;21.20;8.45;;;;;;;;;;5024313;28;20182;-73
2021/07/17 06:40:16;;;;;;;21.95;8.82;;;;;;;;;;5013682;28;20525;-72
2021/07/17 06:42:43;;;;;;;18.40;8.23;;;;;;;;;;5027052;28;20309;-73
2021/07/17 06:45:10;;;;;;;20.48;8.18;;;;;;;;;;5011832;28;20242;-72
2021/07/17 06:47:35;;;;;;;23.00;8.82;;;;;;;;;;5024335;28;20721;-71
2021/07/17 06:50:02;;;;;;;18.52;7.70;;;;;;;;;;5020314;28;20316;-72
2021/07/17 06:52:27;;;;;;;21.80;8.32;;;;;;;;;;5015482;28;20190;-72
2021/07/17 06:54:53;;;;;;;17.95;7.00;;;;;;;;;;5021429;28;20208;-72
2021/07/17 06:57:18;;;;;;;21.25;7.03;;;;;;;;;;4998507;28;20198;-72
2021/07/17 06:59:43;;;;;;;17.85;6.20;;;;;;;;;;5020132;28;20210;-74
2021/07/17 07:02:08;;;;;;;18.95;6.18;;;;;;;;;;5014297;28;20245;-72
2021/07/17 07:04:34;;;;;;;26.70;6.63;;;;;;;;;;5006486;28;20376;-72
2021/07/17 07:06:59;;;;;;;15.68;6.03;;;;;;;;;;5010981;28;20194;-72
2021/07/17 07:09:24;;;;;;;16.75;5.43;;;;;;;;;;5020547;28;20194;-73
2021/07/17 07:11:50;;;;;;;16.33;5.65;;;;;;;;;;5011552;28;20183;-73
2021/07/17 07:14:15;;;;;;;16.48;5.18;;;;;;;;;;5018228;28;20191;-73
2021/07/17 07:16:40;;;;;;;20.67;5.18;;;;;;;;;;5013420;28;20181;-73
2021/07/17 07:19:06;;;;;;;15.13;4.63;;;;;;;;;;5021882;28;22098;-72
2021/07/17 07:21:31;;;;;;;13.93;4.53;;;;;;;;;;5028256;28;20221;-74
2021/07/17 07:23:57;;;;;;;21.05;4.53;;;;;;;;;;5011037;28;20556;-73
2021/07/17 07:26:22;;;;;;;17.02;4.43;;;;;;;;;;5018143;28;20265;-74
2021/07/17 07:28:47;;;;;;;10.73;4.00;;;;;;;;;;5016601;28;20300;-72
2021/07/17 07:31:13;;;;;;;11.98;4.25;;;;;;;;;;5025116;28;20543;-73
2021/07/17 07:33:38;;;;;;;14.50;4.70;;;;;;;;;;4998908;28;20330;-74
2021/07/17 07:36:04;;;;;;;18.65;4.32;;;;;;;;;;5008570;28;20265;-75
2021/07/17 07:38:29;;;;;;;16.92;4.03;;;;;;;;;;4996739;28;20185;-74
2021/07/17 07:40:54;;;;;;;13.67;3.53;;;;;;;;;;5019969;28;20538;-73
2021/07/17 07:43:20;;;;;;;15.38;3.50;;;;;;;;;;5013528;28;20248;-73
2021/07/17 07:45:45;;;;;;;10.48;4.05;;;;;;;;;;5018940;28;20632;-75
2021/07/17 07:48:10;;;;;;;13.18;4.03;;;;;;;;;;5010975;28;20378;-70
2021/07/17 07:50:35;;;;;;;11.13;4.05;;;;;;;;;;5022345;28;20312;-74
2021/07/17 07:53:01;;;;;;;12.05;3.72;;;;;;;;;;5046136;28;20185;-75
2021/07/17 07:55:27;;;;;;;17.90;4.00;;;;;;;;;;5036114;28;20276;-74
2021/07/17 07:57:52;;;;;;;16.38;4.10;;;;;;;;;;5045342;28;20547;-72
2021/07/17 08:00:18;;;;;;;10.07;3.60;;;;;;;;;;5033364;28;20290;-74
2021/07/17 08:02:44;;;;;;;11.18;3.55;;;;;;;;;;5046634;28;20271;-76
2021/07/17 08:05:10;;;;;;;10.85;4.07;;;;;;;;;;5034251;28;20189;-74
2021/07/17 08:07:35;;;;;;;15.35;4.30;;;;;;;;;;5044927;28;20640;-74
2021/07/17 08:10:02;;;;;;;12.32;4.10;;;;;;;;;;5031452;28;20196;-75
2021/07/17 08:12:28;;;;;;;13.05;3.55;;;;;;;;;;5040192;28;20264;-73
2021/07/17 08:14:53;;;;;;;13.68;3.75;;;;;;;;;;5035863;28;20216;-75
2021/07/17 08:17:19;;;;;;;9.50;3.13;;;;;;;;;;5039639;28;20185;-73
2021/07/17 08:19:44;;;;;;;7.10;2.60;;;;;;;;;;5033177;28;20636;-73
2021/07/17 08:22:09;;;;;;;13.73;3.65;;;;;;;;;;5041108;28;20703;-74
2021/07/17 08:24:35;;;;;;;9.00;2.58;;;;;;;;;;5043743;28;20272;-75
2021/07/17 08:27:00;;;;;;;10.90;3.30;;;;;;;;;;5034553;28;20260;-74
2021/07/17 08:29:25;;;;;;;10.60;2.60;;;;;;;;;;5041160;28;20182;-74
2021/07/17 08:31:51;;;;;;;10.43;2.80;;;;;;;;;;5034626;28;20277;-74
2021/07/17 08:34:16;;;;;;;7.72;2.83;;;;;;;;;;5041061;28;20264;-74
2021/07/17 08:36:41;;;;;;;13.52;3.17;;;;;;;;;;5035980;28;20193;-73
2021/07/17 08:39:07;;;;;;;6.88;2.42;;;;;;;;;;5048771;28;20178;-73
2021/07/17 08:41:34;;;;;;;10.60;3.00;;;;;;;;;;5038595;28;20213;-72
2021/07/17 08:44:00;;;;;;;11.68;2.80;;;;;;;;;;5047668;28;20188;-73
2021/07/17 08:46:26;;;;;;;10.93;2.72;;;;;;;;;;5032178;28;20185;-74
2021/07/17 08:48:54;;;;;;;10.35;3.00;;;;;;;;;;5040910;28;20251;-73
2021/07/17 08:51:20;;;;;;;10.70;2.83;;;;;;;;;;5022476;28;20593;-73
2021/07/17 08:53:47;;;;;;;8.05;2.50;;;;;;;;;;5024580;28;20190;-76
2021/07/17 08:56:12;;;;;;;8.88;2.88;;;;;;;;;;5023588;28;20182;-74
2021/07/17 08:58:39;;;;;;;6.65;2.22;;;;;;;;;;5019420;28;20189;-72
2021/07/17 09:01:04;;;;;;;6.82;2.42;;;;;;;;;;5023612;28;20205;-75
2021/07/17 09:03:30;;;;;;;9.80;2.22;;;;;;;;;;4996356;28;20248;-73
2021/07/17 09:05:55;;;;;;;6.13;2.38;;;;;;;;;;5025532;28;20186;-74
2021/07/17 09:08:22;;;;;;;6.32;1.85;;;;;;;;;;5009912;28;20194;-71
2021/07/17 09:10:50;;;;;;;7.40;2.38;;;;;;;;;;5023760;28;20628;-76
2021/07/17 09:13:20;;;;;;;6.97;1.90;;;;;;;;;;5013176;28;20186;-74
2021/07/17 09:15:48;;;;;;;6.28;2.08;;;;;;;;;;5025963;28;20192;-71
2021/07/17 09:18:23;;;;;;;5.28;1.92;;;;;;;;;;5014719;28;20653;-74
2021/07/17 09:20:59;;;;;;;8.05;2.17;;;;;;;;;;5025459;28;20711;-74
2021/07/17 09:23:26;;;;;;;6.18;2.00;;;;;;;;;;5019634;28;20311;-74
2021/07/17 09:25:52;;;;;;;9.77;2.22;;;;;;;;;;5023982;28;20629;-73
2021/07/17 09:28:18;;;;;;;5.57;2.00;;;;;;;;;;5011708;28;20190;-75
2021/07/17 09:30:45;;;;;;;4.78;1.92;;;;;;;;;;5026958;28;20612;-72
2021/07/17 09:33:11;;;;;;;5.68;2.08;;;;;;;;;;5027516;28;20217;-76
2021/07/17 09:35:41;;;;;;;8.15;1.50;;;;;;;;;;5017008;28;20267;-76
2021/07/17 09:38:08;;;;;;;7.63;2.03;;;;;;;;;;5013973;28;20181;-72
2021/07/17 09:40:50;;;;;;;4.88;1.50;;;;;;;;;;4999005;28;20182;-73
2021/07/17 09:43:41;;;;;;;6.63;1.60;;;;;;;;;;5018231;28;20753;-74
2021/07/17 09:46:27;;;;;;;11.23;2.47;;;;;;;;;;5004722;28;20229;-75
2021/07/17 09:48:55;;;;;;;5.30;1.88;;;;;;;;;;5027162;28;20240;-73
2021/07/17 09:51:28;;;;;;;8.13;1.98;;;;;;;;;;5021188;28;20245;-73
2021/07/17 09:54:00;;;;;;;7.57;1.77;;;;;;;;;;5021849;28;20219;-72
2021/07/17 09:56:28;;;;;;;8.20;1.95;;;;;;;;;;5017586;28;20206;-76
2021/07/17 09:58:58;;;;;;;8.32;2.22;;;;;;;;;;5009632;28;20197;-73
2021/07/17 10:01:29;;;;;;;5.15;1.50;;;;;;;;;;5011739;28;20360;-75
2021/07/17 10:04:09;;;;;;;7.88;2.30;;;;;;;;;;5025979;28;20202;-74
2021/07/17 10:06:39;;;;;;;9.05;2.03;;;;;;;;;;5013338;28;20183;-75
2021/07/17 10:09:23;;;;;;;7.85;1.98;;;;;;;;;;5008290;28;20182;-73
2021/07/17 10:11:59;;;;;;;4.28;1.80;;;;;;;;;;5008226;28;20656;-75
2021/07/17 10:14:33;;;;;;;5.72;2.13;;;;;;;;;;5009855;28;20304;-73
2021/07/17 10:17:03;;;;;;;6.43;1.80;;;;;;;;;;5012859;28;20591;-71
2021/07/17 10:19:28;;;;;;;6.55;2.13;;;;;;;;;;5018568;28;20186;-73
2021/07/17 10:21:55;;;;;;;7.80;2.28;;;;;;;;;;5016600;28;20563;-75
2021/07/17 10:24:22;;;;;;;11.45;3.30;;;;;;;;;;5024539;28;20190;-74
2021/07/17 10:26:49;;;;;;;9.70;2.28;;;;;;;;;;5015034;28;20269;-75
2021/07/17 10:29:16;;;;;;;4.97;2.00;;;;;;;;;;5025883;28;20182;-76
2021/07/17 10:31:43;;;;;;;7.78;2.42;;;;;;;;;;5000958;28;20564;-75
2021/07/17 10:34:08;;;;;;;6.63;2.05;;;;;;;;;;5007488;28;20244;-76
2021/07/17 10:36:41;;;;;;;8.68;2.17;;;;;;;;;;5016191;28;20191;-73
2021/07/17 10:39:09;;;;;;;5.43;2.50;;;;;;;;;;5023209;28;20193;-75
2021/07/17 10:41:37;;;;;;;5.05;1.90;;;;;;;;;;5019268;28;20206;-74
2021/07/17 10:44:03;;;;;;;6.05;1.90;;;;;;;;;;5005520;28;20188;-71
2021/07/17 10:46:30;;;;;;;9.23;1.98;;;;;;;;;;5020635;28;20194;-76
2021/07/17 10:48:57;;;;;;;6.22;2.22;;;;;;;;;;5012689;28;20190;-74
2021/07/17 10:51:22;;;;;;;4.93;1.90;;;;;;;;;;5022083;28;20826;-70
2021/07/17 10:53:50;;;;;;;6.60;2.10;;;;;;;;;;5018511;28;20185;-74
2021/07/17 10:56:34;;;;;;;7.40;1.70;;;;;;;;;;5019118;28;20676;-76
2021/07/17 10:59:10;;;;;;;5.68;1.77;;;;;;;;;;5019204;28;20234;-75
2021/07/17 11:02:02;;;;;;;5.80;1.90;;;;;;;;;;5023676;28;21469;-74
2021/07/17 11:04:39;;;;;;;5.93;2.20;;;;;;;;;;5018390;28;20305;-71
2021/07/17 11:07:26;;;;;;;4.28;1.52;;;;;;;;;;5024725;28;20658;-72
2021/07/17 11:09:56;;;;;;;6.65;1.98;;;;;;;;;;4998754;28;20229;-74
2021/07/17 11:12:46;;;;;;;6.75;1.67;;;;;;;;;;5029576;28;20173;-75
2021/07/17 11:15:11;;;;;;;5.95;2.00;;;;;;;;;;5002910;28;20202;-74
2021/07/17 11:17:51;;;;;;;4.97;2.05;;;;;;;;;;5027543;28;20182;-74
2021/07/17 11:20:34;;;;;;;4.03;1.50;;;;;;;;;;5012290;28;20205;-75
2021/07/17 11:23:05;;;;;;;5.07;1.67;;;;;;;;;;5026795;28;20198;-75
2021/07/17 11:25:30;;;;;;;4.03;1.20;;;;;;;;;;5017044;28;20208;-75
2021/07/17 11:27:56;;;;;;;3.95;1.40;;;;;;;;;;5012604;28;20178;-75
2021/07/17 11:30:23;;;;;;;3.53;1.60;;;;;;;;;;4999425;28;20292;-72
2021/07/17 11:33:12;;;;;;;6.57;1.67;;;;;;;;;;5027315;28;20185;-74
2021/07/17 11:35:44;;;;;;;5.22;1.60;;;;;;;;;;4996391;28;20206;-76
2021/07/17 11:38:11;;;;;;;7.07;1.75;;;;;;;;;;5009896;28;20190;-75
2021/07/17 11:40:37;;;;;;;4.28;1.77;;;;;;;;;;5015090;28;20298;-74
2021/07/17 11:43:10;;;;;;;7.88;1.90;;;;;;;;;;5025159;28;20832;-74
2021/07/17 11:45:37;;;;;;;4.18;1.30;;;;;;;;;;4999580;28;20197;-72
2021/07/17 11:48:13;;;;;;;4.82;1.63;;;;;;;;;;5026346;28;20257;-74
2021/07/17 11:50:40;;;;;;;6.47;1.92;;;;;;;;;;5011308;28;20241;-75
2021/07/17 11:53:13;;;;;;;7.78;1.70;;;;;;;;;;5013193;28;20185;-71
2021/07/17 11:55:38;;;;;;;3.60;1.50;;;;;;;;;;5014194;28;20190;-74
2021/07/17 11:58:16;;;;;;;5.38;1.48;;;;;;;;;;5006140;28;20198;-73
2021/07/17 12:00:42;;;;;;;5.53;1.65;;;;;;;;;;5025666;28;20194;-71
2021/07/17 12:03:08;;;;;;;3.72;1.42;;;;;;;;;;5015357;28;20209;-71
2021/07/17 12:05:34;;;;;;;5.35;1.25;;;;;;;;;;5024965;28;20545;-74
2021/07/17 12:07:59;;;;;;;5.05;1.30;;;;;;;;;;4991344;28;20305;-70
2021/07/17 12:10:27;;;;;;;2.97;1.40;;;;;;;;;;5026034;28;20746;-75
2021/07/17 12:12:59;;;;;;;3.42;1.60;;;;;;;;;;5010515;28;20183;-74
2021/07/17 12:15:30;;;;;;;5.22;1.38;;;;;;;;;;5026175;28;20189;-73
2021/07/17 12:18:15;;;;;;;6.25;1.42;;;;;;;;;;5014866;28;20524;-75
2021/07/17 12:20:49;;;;;;;3.17;1.50;;;;;;;;;;5022893;28;20581;-75
2021/07/17 12:23:19;;;;;;;4.50;1.63;;;;;;;;;;5018531;28;20305;-74
2021/07/17 12:25:48;;;;;;;4.57;1.40;;;;;;;;;;5027681;28;20189;-72
2021/07/17 12:28:42;;;;;;;3.10;1.27;;;;;;;;;;5015183;28;20185;-75
2021/07/17 12:31:13;;;;;;;2.13;1.13;;;;;;;;;;5029851;28;20178;-74
2021/07/17 12:33:40;;;;;;;2.75;1.40;;;;;;;;;;5018391;28;20185;-69
2021/07/17 12:36:22;;;;;;;5.15;1.50;;;;;;;;;;5022146;28;20233;-73
2021/07/17 12:38:51;;;;;;;4.25;1.50;;;;;;;;;;4999571;28;20193;-73
2021/07/17 12:41:21;;;;;;;5.97;1.58;;;;;;;;;;5028648;28;20190;-75
2021/07/17 12:43:55;;;;;;;7.40;1.75;;;;;;;;;;5016488;28;20426;-73
2021/07/17 12:46:23;;;;;;;5.80;1.70;;;;;;;;;;5028508;28;20199;-72
2021/07/17 12:48:56;;;;;;;7.35;1.45;;;;;;;;;;5014675;28;20301;-73
2021/07/17 12:51:23;;;;;;;3.38;1.30;;;;;;;;;;5025227;28;20217;-75
2021/07/17 12:53:51;;;;;;;4.97;1.50;;;;;;;;;;5016998;28;20193;-73
2021/07/17 12:56:28;;;;;;;4.20;1.30;;;;;;;;;;5025952;28;20212;-72
2021/07/17 12:58:55;;;;;;;3.95;1.55;;;;;;;;;;5019899;28;20273;-74
2021/07/17 13:01:20;;;;;;;3.28;1.10;;;;;;;;;;5023965;28;20307;-74
2021/07/17 13:03:46;;;;;;;4.00;1.23;;;;;;;;;;5021360;28;20187;-75
2021/07/17 13:06:13;;;;;;;2.75;1.30;;;;;;;;;;5017719;28;20285;-74
2021/07/17 13:08:39;;;;;;;3.90;1.70;;;;;;;;;;5006123;28;20282;-75
2021/07/17 13:11:13;;;;;;;5.43;1.65;;;;;;;;;;4995845;28;20225;-75
2021/07/17 13:13:38;;;;;;;2.60;1.30;;;;;;;;;;5024157;28;20244;-74
2021/07/17 13:16:04;;;;;;;5.60;1.70;;;;;;;;;;5016514;28;20589;-71
2021/07/17 13:18:31;;;;;;;4.97;1.38;;;;;;;;;;5010542;28;20194;-72
2021/07/17 13:21:04;;;;;;;3.83;1.27;;;;;;;;;;5009860;28;20190;-73
2021/07/17 13:23:50;;;;;;;2.95;1.30;;;;;;;;;;5025899;28;20236;-71
2021/07/17 13:26:24;;;;;;;4.50;1.58;;;;;;;;;;5016070;28;20252;-71
2021/07/17 13:28:49;;;;;;;2.20;1.27;;;;;;;;;;5023475;28;20191;-71
2021/07/17 13:31:20;;;;;;;4.63;1.10;;;;;;;;;;5013279;28;20490;-73
2021/07/17 13:33:46;;;;;;;4.32;1.30;;;;;;;;;;5026139;28;20641;-74
2021/07/17 13:36:11;;;;;;;2.53;1.27;;;;;;;;;;5013726;28;20178;-72
2021/07/17 13:38:37;;;;;;;2.80;1.30;;;;;;;;;;5018680;28;20193;-70
2021/07/17 13:41:13;;;;;;;6.20;1.30;;;;;;;;;;5015280;28;20314;-74
2021/07/17 13:43:40;;;;;;;6.47;1.23;;;;;;;;;;5027686;28;20186;-73
2021/07/17 13:46:06;;;;;;;1.60;1.20;;;;;;;;;;5024107;28;20216;-75
2021/07/17 13:48:32;;;;;;;2.67;1.48;;;;;;;;;;5017803;28;20186;-71
2021/07/17 13:51:06;;;;;;;3.05;1.27;;;;;;;;;;5023825;28;20232;-71
2021/07/17 13:53:31;;;;;;;2.75;1.30;;;;;;;;;;5012547;28;20209;-72
2021/07/17 13:56:05;;;;;;;2.67;1.27;;;;;;;;;;5025130;28;20194;-73
2021/07/17 13:58:31;;;;;;;6.05;1.10;;;;;;;;;;5020173;28;20286;-73
2021/07/17 14:00:57;;;;;;;5.10;1.10;;;;;;;;;;5008523;28;20251;-74
2021/07/17 14:03:25;;;;;;;3.30;1.00;;;;;;;;;;5013784;28;20222;-73
2021/07/17 14:05:55;;;;;;;2.67;1.00;;;;;;;;;;5006721;28;20217;-74
2021/07/17 14:08:20;;;;;;;3.38;1.10;;;;;;;;;;4997810;28;20183;-74
2021/07/17 14:10:47;;;;;;;3.25;1.30;;;;;;;;;;5022803;28;20641;-73
2021/07/17 14:13:13;;;;;;;4.20;1.20;;;;;;;;;;4993888;28;20187;-73
2021/07/17 14:15:39;;;;;;;3.33;1.20;;;;;;;;;;5026713;28;20638;-75
2021/07/17 14:18:05;;;;;;;5.78;1.35;;;;;;;;;;5015711;28;20189;-73
2021/07/17 14:20:30;;;;;;;2.28;1.08;;;;;;;;;;5022689;28;20196;-74
2021/07/17 14:22:56;;;;;;;4.97;1.52;;;;;;;;;;5019905;28;20206;-75
2021/07/17 14:25:22;;;;;;;4.25;1.48;;;;;;;;;;5016038;28;20594;-73
2021/07/17 14:27:47;;;;;;;3.25;1.30;;;;;;;;;;5026167;28;20209;-72
2021/07/17 14:30:13;;;;;;;2.33;1.25;;;;;;;;;;5015556;28;20186;-74